Time;durP1;ratioP1;P1;durP2;ratioP2;P2;SDS_P1;SDS_P2;PMS_P1;PMS_P2;Temp;Humidity;BMP_temperature;BMP_pressure;BME280_temperature;BME280_humidity;BME280_pressure;Samples;Min_cycle;Max_cycle;Signal;HPM_P1;HPM_P2
2023/05/03 00:01:42;;;;;;;4.35;2.78;;;6.90;99.90;;;;;;5007218;28;96207;-77
2023/05/03 00:04:09;;;;;;;4.95;2.90;;;6.90;99.90;;;;;;5007019;28;99688;-77
2023/05/03 00:06:36;;;;;;;5.43;3.03;;;7.00;99.90;;;;;;4973058;28;94898;-77
2023/05/03 00:09:03;;;;;;;5.68;2.80;;;7.10;99.90;;;;;;4990194;28;92825;-77
2023/05/03 00:11:30;;;;;;;3.17;2.88;;;7.10;99.90;;;;;;4973907;28;95794;-77
2023/05/03 00:13:57;;;;;;;5.40;2.85;;;7.10;99.90;;;;;;4974613;28;93079;-77
2023/05/03 00:16:24;;;;;;;7.93;3.28;;;7.20;99.90;;;;;;4974250;28;92575;-77
2023/05/03 00:18:51;;;;;;;3.63;3.10;;;7.20;99.90;;;;;;4973826;28;92519;-77
2023/05/03 00:21:18;;;;;;;3.20;2.90;;;7.20;99.90;;;;;;4975307;28;93424;-77
2023/05/03 00:23:45;;;;;;;3.13;2.85;;;7.20;99.90;;;;;;4974418;28;93297;-77
2023/05/03 00:26:12;;;;;;;5.82;3.00;;;7.30;99.90;;;;;;4974248;28;92509;-77
2023/05/03 00:28:40;;;;;;;5.07;2.72;;;7.30;99.90;;;;;;5006915;28;92559;-77
2023/05/03 00:31:08;;;;;;;3.22;2.92;;;7.30;99.90;;;;;;4940981;28;98147;-77
2023/05/03 00:33:38;;;;;;;5.32;3.08;;;7.30;99.90;;;;;;5010160;28;97764;-77
2023/05/03 00:36:07;;;;;;;3.53;3.10;;;7.40;99.90;;;;;;4993642;28;92452;-77
2023/05/03 00:38:35;;;;;;;5.60;3.03;;;7.40;99.90;;;;;;4978556;28;92418;-77
2023/05/03 00:41:02;;;;;;;5.82;3.20;;;7.40;99.90;;;;;;4977048;28;93255;-77
2023/05/03 00:43:31;;;;;;;7.45;3.22;;;7.40;99.90;;;;;;4993406;28;95917;-77
2023/05/03 00:45:59;;;;;;;5.00;3.13;;;7.50;99.90;;;;;;5010186;28;92395;-77
2023/05/03 00:48:38;;;;;;;4.18;2.88;;;7.50;99.90;;;;;;5007716;28;91741;-77
2023/05/03 00:51:06;;;;;;;3.72;3.38;;;7.50;99.90;;;;;;4960604;28;92571;-77
2023/05/03 00:53:33;;;;;;;3.10;2.78;;;7.60;99.90;;;;;;4978153;28;94459;-77
2023/05/03 00:56:00;;;;;;;3.50;2.85;;;7.60;99.90;;;;;;4976728;28;94870;-77
2023/05/03 00:58:27;;;;;;;6.68;3.30;;;7.60;99.90;;;;;;4976841;28;92525;-77
2023/05/03 01:00:55;;;;;;;4.85;2.85;;;7.70;99.90;;;;;;4960377;28;94233;-77
2023/05/03 01:03:22;;;;;;;3.92;2.80;;;7.70;99.90;;;;;;4976855;28;92899;-77
2023/05/03 01:06:12;;;;;;;4.75;3.47;;;7.70;99.90;;;;;;4978322;28;92342;-77
2023/05/03 01:09:01;;;;;;;3.78;2.75;;;7.70;99.90;;;;;;5010143;28;92451;-77
2023/05/03 01:12:07;;;;;;;3.38;3.00;;;7.70;99.90;;;;;;5009931;28;96208;-77
2023/05/03 01:14:59;;;;;;;5.10;3.05;;;7.70;99.90;;;;;;4994406;28;93027;-77
2023/05/03 01:17:37;;;;;;;5.10;2.95;;;7.70;99.90;;;;;;4976418;28;92451;-77
2023/05/03 01:20:07;;;;;;;5.10;3.13;;;7.70;99.90;;;;;;4992640;28;92447;-77
2023/05/03 01:22:42;;;;;;;3.85;2.95;;;7.70;99.90;;;;;;5008362;28;98573;-77
2023/05/03 01:25:12;;;;;;;2.65;2.45;;;7.70;99.90;;;;;;4977682;28;94545;-77
2023/05/03 01:27:40;;;;;;;4.78;2.50;;;7.70;99.90;;;;;;5009506;28;92456;-77
2023/05/03 01:30:09;;;;;;;4.63;3.08;;;7.80;99.90;;;;;;4976124;28;92488;-77
2023/05/03 01:32:45;;;;;;;3.03;2.72;;;7.80;99.90;;;;;;4977338;28;93355;-77
2023/05/03 01:35:58;;;;;;;4.10;3.50;;;7.90;99.90;;;;;;5009376;28;92482;-77
2023/05/03 01:38:32;;;;;;;4.07;3.15;;;7.90;99.90;;;;;;5009651;28;92453;-77
2023/05/03 01:41:01;;;;;;;5.05;2.95;;;7.90;99.90;;;;;;4978014;28;91681;-77
2023/05/03 01:43:30;;;;;;;3.38;3.05;;;7.90;99.90;;;;;;5007920;28;100784;-77
2023/05/03 01:45:58;;;;;;;9.35;3.03;;;7.90;99.90;;;;;;4977278;28;93379;-77
2023/05/03 01:48:24;;;;;;;5.18;2.67;;;8.00;99.90;;;;;;4958867;28;95607;-77
2023/05/03 01:50:51;;;;;;;6.95;3.38;;;8.00;99.90;;;;;;5009181;28;92452;-77
2023/05/03 01:53:19;;;;;;;4.35;2.83;;;8.00;99.90;;;;;;4992214;28;96430;-77
2023/05/03 01:55:45;;;;;;;5.45;2.75;;;8.00;99.90;;;;;;4975703;28;95358;-77
2023/05/03 01:58:12;;;;;;;4.63;3.42;;;8.00;99.90;;;;;;5008936;28;93153;-77
2023/05/03 02:00:40;;;;;;;3.78;2.90;;;8.10;99.90;;;;;;4959532;28;92997;-77
2023/05/03 02:03:07;;;;;;;4.55;2.95;;;8.10;99.90;;;;;;4991958;28;95530;-77
2023/05/03 02:05:34;;;;;;;5.78;2.90;;;8.10;99.90;;;;;;4976020;28;93126;-77
2023/05/03 02:08:01;;;;;;;7.22;3.00;;;8.10;99.90;;;;;;4959622;28;93001;-75
2023/05/03 02:10:28;;;;;;;5.05;3.33;;;8.10;99.90;;;;;;5008873;28;92565;-75
2023/05/03 02:12:54;;;;;;;3.83;3.08;;;8.20;99.90;;;;;;4990494;28;98389;-75
2023/05/03 02:15:21;;;;;;;7.93;3.35;;;8.20;99.90;;;;;;4990942;28;97855;-75
2023/05/03 02:17:49;;;;;;;4.55;2.80;;;8.20;99.90;;;;;;5008783;28;92998;-75
2023/05/03 02:20:16;;;;;;;3.75;2.83;;;8.20;99.90;;;;;;4975349;28;92572;-74
2023/05/03 02:22:43;;;;;;;5.30;3.08;;;8.20;99.90;;;;;;4975418;28;92648;-75
2023/05/03 02:25:10;;;;;;;5.03;3.38;;;8.20;99.90;;;;;;4958964;28;94579;-75
2023/05/03 02:27:37;;;;;;;4.13;2.95;;;8.20;99.90;;;;;;5008735;28;92516;-75
2023/05/03 02:30:06;;;;;;;3.72;3.03;;;8.30;99.90;;;;;;5008797;28;91837;-77
2023/05/03 02:32:38;;;;;;;4.72;3.00;;;8.30;99.90;;;;;;4960116;28;95412;-77
2023/05/03 02:35:06;;;;;;;5.40;3.00;;;8.30;99.90;;;;;;5008330;28;93899;-77
2023/05/03 02:37:33;;;;;;;3.03;2.72;;;8.30;99.90;;;;;;4990605;28;94928;-77
2023/05/03 02:40:08;;;;;;;9.15;3.22;;;8.40;99.90;;;;;;4959645;28;93092;-77
2023/05/03 02:42:35;;;;;;;4.82;2.78;;;8.30;99.90;;;;;;4975167;28;93133;-77
2023/05/03 02:45:04;;;;;;;4.45;3.05;;;8.40;99.90;;;;;;4958597;28;94229;-77
2023/05/03 02:47:31;;;;;;;4.30;2.85;;;8.40;99.90;;;;;;5008443;28;92548;-77
2023/05/03 02:49:58;;;;;;;5.47;2.90;;;8.40;99.90;;;;;;4959049;28;92516;-77
2023/05/03 02:52:25;;;;;;;7.38;3.00;;;8.40;99.90;;;;;;4974696;28;95554;-77
2023/05/03 02:54:53;;;;;;;8.07;3.63;;;8.40;99.90;;;;;;4958482;28;95782;-77
2023/05/03 02:57:20;;;;;;;4.22;3.13;;;8.40;99.90;;;;;;5007964;28;92423;-77
2023/05/03 02:59:48;;;;;;;5.60;3.83;;;8.40;99.90;;;;;;4958578;28;92522;-77
2023/05/03 03:02:14;;;;;;;5.70;3.47;;;8.40;99.90;;;;;;5006538;28;98326;-77
2023/05/03 03:04:41;;;;;;;5.95;3.80;;;8.40;99.90;;;;;;4974995;28;97914;-77
2023/05/03 03:07:09;;;;;;;7.53;3.50;;;8.40;99.90;;;;;;4958837;28;93004;-77
2023/05/03 03:09:36;;;;;;;5.45;3.53;;;8.40;99.90;;;;;;4976388;28;93023;-77
2023/05/03 03:12:03;;;;;;;7.72;3.50;;;8.40;99.90;;;;;;4975833;28;93316;-77
2023/05/03 03:14:31;;;;;;;5.45;3.90;;;8.40;99.90;;;;;;4957946;28;95190;-77
2023/05/03 03:17:00;;;;;;;4.18;3.10;;;8.40;99.90;;;;;;4958579;28;92594;-77
2023/05/03 03:19:27;;;;;;;7.35;4.40;;;8.40;99.90;;;;;;4958771;28;92288;-77
2023/05/03 03:21:55;;;;;;;4.15;3.50;;;8.40;99.90;;;;;;4958268;28;95867;-77
2023/05/03 03:24:23;;;;;;;6.43;3.47;;;8.40;99.90;;;;;;5007553;28;93903;-77
2023/05/03 03:26:51;;;;;;;4.78;3.45;;;8.40;99.90;;;;;;5006829;28;94876;-77
2023/05/03 03:29:18;;;;;;;6.22;3.55;;;8.40;99.90;;;;;;5007708;28;92491;-77
2023/05/03 03:31:46;;;;;;;3.95;3.30;;;8.40;99.90;;;;;;4958135;28;95778;-77
2023/05/03 03:34:14;;;;;;;7.78;3.40;;;8.40;99.90;;;;;;4974126;28;95326;-77
2023/05/03 03:36:41;;;;;;;4.68;3.50;;;8.40;99.90;;;;;;4991035;28;92607;-77
2023/05/03 03:39:08;;;;;;;5.28;3.30;;;8.30;99.90;;;;;;5007531;28;93029;-77
2023/05/03 03:41:36;;;;;;;3.80;3.45;;;8.40;99.90;;;;;;4990489;28;95572;-77
2023/05/03 03:44:03;;;;;;;7.95;3.50;;;8.30;99.90;;;;;;5007857;28;95525;-77
2023/05/03 03:46:30;;;;;;;4.20;3.70;;;8.30;99.90;;;;;;4957831;28;92585;-77
2023/05/03 03:48:58;;;;;;;4.68;3.80;;;8.20;99.90;;;;;;5007737;28;92576;-77
2023/05/03 03:51:27;;;;;;;4.10;3.33;;;8.20;99.90;;;;;;4988887;28;98368;-77
2023/05/03 03:53:54;;;;;;;5.22;3.33;;;8.20;99.90;;;;;;4990666;28;98465;-77
2023/05/03 03:56:25;;;;;;;4.70;3.50;;;8.20;99.90;;;;;;4990205;28;93137;-77
2023/05/03 03:58:55;;;;;;;6.28;3.90;;;8.10;99.90;;;;;;5007273;28;92547;-77
2023/05/03 04:01:22;;;;;;;4.03;3.25;;;8.10;99.90;;;;;;5007021;28;92486;-77
2023/05/03 04:03:49;;;;;;;4.07;3.72;;;8.10;99.90;;;;;;4990322;28;95543;-77
2023/05/03 04:06:16;;;;;;;4.95;3.90;;;8.10;99.90;;;;;;5008687;28;92617;-77
2023/05/03 04:08:43;;;;;;;5.18;3.63;;;8.10;99.90;;;;;;5011178;28;91747;-77
2023/05/03 04:11:12;;;;;;;4.40;3.45;;;8.10;99.90;;;;;;4961417;28;96199;-77
2023/05/03 04:13:45;;;;;;;5.95;3.88;;;8.00;99.90;;;;;;4994703;28;95685;-77
2023/05/03 04:16:13;;;;;;;5.60;3.63;;;8.00;99.90;;;;;;4993155;28;96015;-77
2023/05/03 04:18:41;;;;;;;4.65;3.72;;;8.00;99.90;;;;;;4993967;28;92556;-77
2023/05/03 04:21:08;;;;;;;4.43;3.90;;;8.10;99.90;;;;;;5010377;28;96131;-77
2023/05/03 04:23:35;;;;;;;4.18;3.75;;;8.10;99.90;;;;;;4977159;28;95522;-77
2023/05/03 04:26:04;;;;;;;5.30;3.30;;;8.10;99.90;;;;;;4961730;28;92564;-77
2023/05/03 04:28:34;;;;;;;6.63;3.38;;;8.10;99.90;;;;;;4993363;28;92918;-77
2023/05/03 04:31:01;;;;;;;6.55;3.60;;;8.20;99.90;;;;;;4977029;28;95742;-77
2023/05/03 04:33:30;;;;;;;4.93;3.85;;;8.20;99.90;;;;;;5010612;28;95303;-77
2023/05/03 04:36:01;;;;;;;5.00;3.45;;;8.20;99.90;;;;;;4993412;28;93002;-77
2023/05/03 04:38:28;;;;;;;3.85;3.55;;;8.30;99.90;;;;;;5010228;28;92648;-77
2023/05/03 04:40:58;;;;;;;4.85;4.30;;;8.30;99.90;;;;;;5009030;28;97908;-77
2023/05/03 04:43:25;;;;;;;4.32;3.78;;;8.40;99.90;;;;;;4976652;28;97882;-77
2023/05/03 04:45:53;;;;;;;4.50;3.33;;;8.50;99.90;;;;;;4961083;28;92568;-77
2023/05/03 04:48:23;;;;;;;5.68;4.57;;;8.50;99.90;;;;;;4961064;28;92488;-77
2023/05/03 04:50:51;;;;;;;4.13;3.78;;;8.60;99.90;;;;;;4977012;28;95583;-77
2023/05/03 04:53:20;;;;;;;4.43;4.03;;;8.70;99.90;;;;;;4960799;28;95318;-77
2023/05/03 04:55:56;;;;;;;7.25;3.85;;;8.70;99.90;;;;;;4992267;28;92581;-77
2023/05/03 04:58:23;;;;;;;5.60;3.97;;;8.80;99.90;;;;;;4994113;28;92081;-77
2023/05/03 05:00:52;;;;;;;5.15;3.47;;;8.90;99.90;;;;;;4992970;28;95331;-77
2023/05/03 05:03:27;;;;;;;7.05;3.50;;;8.90;99.90;;;;;;4976508;28;95580;-77
2023/05/03 05:05:54;;;;;;;4.45;3.67;;;9.00;99.90;;;;;;4975468;28;94921;-77
2023/05/03 05:08:22;;;;;;;4.25;3.55;;;9.10;99.90;;;;;;4993048;28;92466;-77
2023/05/03 05:10:54;;;;;;;3.88;3.30;;;9.20;99.90;;;;;;4978029;28;93294;-77
2023/05/03 05:13:25;;;;;;;10.32;4.10;;;9.20;99.90;;;;;;4976531;28;95560;-77
2023/05/03 05:15:53;;;;;;;6.18;4.05;;;9.30;99.90;;;;;;4993009;28;92483;-77
2023/05/03 05:18:20;;;;;;;6.38;3.90;;;9.40;99.90;;;;;;4960169;28;92618;-77
2023/05/03 05:20:48;;;;;;;7.00;4.05;;;9.50;99.90;;;;;;5009287;28;95165;-77
2023/05/03 05:23:18;;;;;;;6.80;4.05;;;9.50;99.90;;;;;;4976658;28;94497;-77
2023/05/03 05:25:46;;;;;;;7.65;4.35;;;9.60;99.90;;;;;;4960230;28;92872;-77
2023/05/03 05:28:13;;;;;;;7.43;4.15;;;9.70;99.90;;;;;;4992968;28;92519;-77
2023/05/03 05:30:41;;;;;;;4.90;4.40;;;9.80;99.90;;;;;;4991187;28;98012;-77
2023/05/03 05:33:08;;;;;;;5.32;4.13;;;9.90;99.90;;;;;;4992527;28;98704;-77
2023/05/03 05:35:35;;;;;;;4.28;3.88;;;10.10;99.90;;;;;;5009461;28;92534;-77
2023/05/03 05:38:03;;;;;;;4.35;3.92;;;10.10;99.90;;;;;;4960189;28;92477;-77
2023/05/03 05:40:31;;;;;;;6.47;4.50;;;10.20;99.90;;;;;;5009240;28;95793;-77
2023/05/03 05:42:59;;;;;;;4.43;4.03;;;10.40;99.90;;;;;;5009276;28;95445;-77
2023/05/03 05:45:28;;;;;;;7.40;4.13;;;10.50;99.90;;;;;;4960236;28;92535;-77
2023/05/03 05:47:56;;;;;;;8.20;5.90;;;10.60;99.90;;;;;;4944389;28;91757;-77
2023/05/03 05:50:23;;;;;;;6.35;5.25;;;10.70;99.90;;;;;;4959410;28;95866;-77
2023/05/03 05:52:58;;;;;;;4.13;3.22;;;10.90;99.90;;;;;;4960627;28;95570;-77
2023/05/03 05:55:28;;;;;;;3.50;3.20;;;11.00;99.90;;;;;;4958954;28;94821;-78
2023/05/03 05:57:57;;;;;;;7.80;3.33;;;11.10;99.90;;;;;;4959753;28;92364;-77
2023/05/03 06:00:31;;;;;;;4.93;2.95;;;11.20;99.90;;;;;;5009109;28;95628;-77
2023/05/03 06:02:58;;;;;;;5.78;3.13;;;11.30;99.90;;;;;;4975637;28;96055;-77
2023/05/03 06:05:25;;;;;;;5.05;3.33;;;11.30;99.90;;;;;;4959707;28;92479;-76
2023/05/03 06:07:52;;;;;;;3.95;2.83;;;11.40;99.90;;;;;;5008805;28;92429;-76
2023/05/03 06:10:20;;;;;;;4.25;3.03;;;11.50;99.90;;;;;;5008875;28;95784;-76
2023/05/03 06:12:50;;;;;;;3.80;2.97;;;11.50;99.90;;;;;;5008988;28;96028;-76
2023/05/03 06:15:21;;;;;;;3.72;3.20;;;11.50;99.90;;;;;;5008620;28;92611;-76
2023/05/03 06:17:48;;;;;;;3.65;2.60;;;11.60;99.90;;;;;;5008659;28;92572;-76
2023/05/03 06:20:17;;;;;;;3.53;1.95;;;11.70;99.90;;;;;;4975225;28;94872;-76
2023/05/03 06:22:44;;;;;;;4.10;2.35;;;11.80;99.70;;;;;;5008341;28;97568;-76
2023/05/03 06:25:13;;;;;;;4.90;2.88;;;11.90;99.00;;;;;;4991872;28;92476;-77
2023/05/03 06:27:44;;;;;;;3.22;1.95;;;12.00;99.00;;;;;;4959752;28;92483;-77
2023/05/03 06:30:11;;;;;;;3.15;2.10;;;12.00;98.40;;;;;;5007860;28;95827;-76
2023/05/03 06:32:40;;;;;;;5.60;2.00;;;12.10;98.10;;;;;;4974722;28;95498;-76
2023/05/03 06:35:08;;;;;;;2.85;2.10;;;12.20;98.10;;;;;;5008884;28;92990;-76
2023/05/03 06:37:37;;;;;;;2.10;1.88;;;12.20;97.80;;;;;;5009038;28;91881;-76
2023/05/03 06:40:06;;;;;;;2.80;2.10;;;12.30;97.70;;;;;;5008282;28;94484;-76
2023/05/03 06:42:35;;;;;;;3.08;2.20;;;12.30;97.30;;;;;;5008393;28;95779;-76
2023/05/03 06:45:19;;;;;;;2.95;2.10;;;12.40;97.00;;;;;;4960247;28;94840;-76
2023/05/03 06:47:48;;;;;;;2.17;1.75;;;12.50;96.80;;;;;;5008089;28;92925;-76
2023/05/03 06:50:15;;;;;;;2.97;2.10;;;12.50;96.70;;;;;;4991355;28;95753;-76
2023/05/03 06:52:42;;;;;;;3.22;1.90;;;12.50;96.60;;;;;;5008095;28;95487;-76
2023/05/03 06:55:09;;;;;;;2.92;1.70;;;12.50;96.30;;;;;;4976510;28;92378;-76
2023/05/03 06:57:37;;;;;;;2.80;1.35;;;12.50;96.30;;;;;;5008257;28;92497;-76
2023/05/03 07:00:06;;;;;;;3.78;1.35;;;12.50;95.90;;;;;;4975954;28;93250;-76
2023/05/03 07:02:33;;;;;;;1.85;1.70;;;12.50;95.20;;;;;;5007828;28;105515;-76
2023/05/03 07:05:00;;;;;;;4.25;1.80;;;12.40;95.20;;;;;;4976186;28;92359;-76
2023/05/03 07:07:27;;;;;;;2.47;1.42;;;12.40;95.20;;;;;;4975736;28;92455;-76
2023/05/03 07:09:54;;;;;;;3.08;1.70;;;12.40;95.10;;;;;;5006797;28;95547;-76
2023/05/03 07:12:26;;;;;;;2.40;1.60;;;12.40;95.10;;;;;;4974698;28;95529;-76
2023/05/03 07:14:57;;;;;;;2.47;1.60;;;12.40;95.20;;;;;;4974900;28;92820;-76
2023/05/03 07:17:24;;;;;;;2.45;1.63;;;12.40;95.10;;;;;;5008187;28;93320;-76
2023/05/03 07:19:52;;;;;;;3.15;1.75;;;12.50;95.00;;;;;;4975553;28;93250;-76
2023/05/03 07:22:24;;;;;;;2.63;1.50;;;12.60;95.00;;;;;;5007697;28;93037;-76
2023/05/03 07:24:53;;;;;;;2.40;1.70;;;12.60;95.00;;;;;;5007439;28;92431;-76
2023/05/03 07:27:20;;;;;;;2.75;1.98;;;12.70;94.90;;;;;;4976336;28;91871;-76
2023/05/03 07:29:47;;;;;;;2.08;1.35;;;12.70;94.60;;;;;;4974361;28;93459;-76
2023/05/03 07:32:14;;;;;;;2.00;1.40;;;12.80;94.60;;;;;;5007632;28;95478;-76
2023/05/03 07:34:41;;;;;;;1.60;1.50;;;12.80;94.50;;;;;;5006745;28;95516;-76
2023/05/03 07:37:08;;;;;;;3.72;1.60;;;12.80;94.30;;;;;;5007600;28;92460;-76
2023/05/03 07:39:35;;;;;;;2.53;1.50;;;12.70;94.00;;;;;;4975519;28;93282;-76
2023/05/03 07:42:02;;;;;;;2.50;1.95;;;12.60;94.20;;;;;;4974871;28;93004;-76
2023/05/03 07:44:29;;;;;;;1.40;1.30;;;12.40;94.40;;;;;;4976030;28;92944;-76
2023/05/03 07:46:56;;;;;;;5.20;1.55;;;12.40;94.70;;;;;;4975455;28;92393;-76
2023/05/03 07:49:23;;;;;;;2.42;1.50;;;12.40;94.50;;;;;;4975672;28;93261;-76
2023/05/03 07:51:50;;;;;;;1.67;1.50;;;12.40;94.30;;;;;;4974386;28;93852;-76
2023/05/03 07:54:17;;;;;;;4.70;1.40;;;12.50;94.20;;;;;;5007351;28;96177;-76
2023/05/03 07:56:44;;;;;;;2.63;1.73;;;12.60;94.40;;;;;;4974549;28;92450;-76
2023/05/03 07:59:11;;;;;;;2.53;1.70;;;12.70;94.00;;;;;;4974177;28;95586;-76
2023/05/03 08:01:38;;;;;;;2.28;1.33;;;12.80;93.90;;;;;;4990202;28;95430;-76
2023/05/03 08:04:05;;;;;;;4.50;1.75;;;12.80;93.80;;;;;;4974194;28;93427;-76
2023/05/03 08:06:34;;;;;;;4.30;1.70;;;12.90;93.50;;;;;;5007267;28;92662;-76
2023/05/03 08:09:01;;;;;;;1.70;1.60;;;13.00;93.50;;;;;;4975273;28;93298;-76
2023/05/03 08:11:28;;;;;;;3.38;1.70;;;13.00;93.10;;;;;;4990490;28;95607;-76
2023/05/03 08:13:55;;;;;;;3.75;1.90;;;13.20;93.10;;;;;;4975020;28;92473;-76
2023/05/03 08:16:23;;;;;;;4.32;1.90;;;13.30;92.90;;;;;;4975681;28;91762;-76
2023/05/03 08:18:50;;;;;;;3.42;2.10;;;13.40;92.80;;;;;;4974326;28;93681;-76
2023/05/03 08:21:17;;;;;;;2.38;1.85;;;13.50;92.60;;;;;;4973814;28;93955;-76
2023/05/03 08:23:45;;;;;;;2.50;1.50;;;13.50;92.60;;;;;;4974376;28;94818;-76
2023/05/03 08:26:13;;;;;;;4.88;2.03;;;13.70;92.10;;;;;;4973441;28;102751;-76
2023/05/03 08:28:41;;;;;;;3.33;1.75;;;13.90;92.00;;;;;;4973670;28;93141;-76
2023/05/03 08:31:08;;;;;;;2.85;2.05;;;14.10;92.10;;;;;;4973599;28;95606;-76
2023/05/03 08:33:36;;;;;;;2.05;1.70;;;14.30;91.70;;;;;;4975528;28;92509;-76
2023/05/03 08:36:03;;;;;;;3.13;1.48;;;14.60;91.40;;;;;;4973945;28;92557;-77
2023/05/03 08:38:30;;;;;;;2.20;1.38;;;14.70;90.50;;;;;;5006890;28;93456;-76
2023/05/03 08:41:10;;;;;;;2.60;1.48;;;14.80;90.50;;;;;;4973869;28;93166;-76
2023/05/03 08:43:43;;;;;;;5.57;1.40;;;15.10;89.80;;;;;;4974037;28;92605;-76
2023/05/03 08:46:11;;;;;;;2.97;1.70;;;15.30;88.90;;;;;;4973623;28;92578;-76
2023/05/03 08:48:38;;;;;;;3.63;1.40;;;15.40;89.10;;;;;;4973650;28;95786;-76
2023/05/03 08:51:08;;;;;;;3.85;1.58;;;15.60;88.00;;;;;;5006384;28;95722;-76
2023/05/03 08:53:36;;;;;;;2.65;1.55;;;15.60;87.20;;;;;;4978469;28;92563;-77
2023/05/03 08:56:11;;;;;;;3.10;1.60;;;15.50;86.70;;;;;;4976859;28;92561;-76
2023/05/03 08:58:38;;;;;;;3.97;1.63;;;15.70;86.20;;;;;;4977253;28;93252;-76
2023/05/03 09:01:07;;;;;;;5.30;1.70;;;15.90;85.90;;;;;;4978035;28;93110;-76
2023/05/03 09:03:35;;;;;;;1.52;1.00;;;15.90;85.20;;;;;;4976899;28;92895;-76
2023/05/03 09:06:04;;;;;;;4.90;1.83;;;15.90;85.10;;;;;;4978322;28;91711;-76
2023/05/03 09:08:42;;;;;;;3.03;1.73;;;15.80;84.20;;;;;;4977908;28;93309;-76
2023/05/03 09:11:30;;;;;;;1.52;1.42;;;16.00;83.10;;;;;;4977901;28;92976;-76
2023/05/03 09:14:15;;;;;;;2.03;1.38;;;16.00;82.70;;;;;;5009200;28;95354;-77
2023/05/03 09:16:43;;;;;;;1.95;1.40;;;16.00;82.80;;;;;;4978055;28;92469;-76
2023/05/03 09:19:12;;;;;;;3.13;1.40;;;16.10;83.20;;;;;;4977521;28;93690;-77
2023/05/03 09:21:41;;;;;;;2.72;1.38;;;16.10;82.30;;;;;;4977748;28;93097;-76
2023/05/03 09:24:16;;;;;;;2.05;1.77;;;16.20;82.40;;;;;;4977758;28;92425;-76
2023/05/03 09:26:45;;;;;;;2.13;1.30;;;16.30;82.30;;;;;;5009872;28;92558;-76
2023/05/03 09:29:33;;;;;;;3.30;1.70;;;16.20;82.70;;;;;;4977371;28;92481;-75
2023/05/03 09:32:04;;;;;;;3.30;1.65;;;16.30;81.70;;;;;;5009624;28;92975;-74
2023/05/03 09:34:32;;;;;;;2.03;1.50;;;16.30;81.70;;;;;;4976719;28;92379;-74
2023/05/03 09:36:59;;;;;;;3.05;1.50;;;16.50;81.60;;;;;;4977794;28;92860;-74
2023/05/03 09:39:26;;;;;;;2.92;1.40;;;16.60;80.70;;;;;;4975751;28;95738;-74
2023/05/03 09:41:53;;;;;;;2.95;1.40;;;16.60;80.20;;;;;;4975454;28;109641;-74
2023/05/03 09:44:43;;;;;;;1.67;1.27;;;16.30;80.50;;;;;;4976249;28;92633;-74
2023/05/03 09:47:11;;;;;;;2.05;1.55;;;16.20;80.90;;;;;;5009025;28;92559;-75
2023/05/03 09:49:38;;;;;;;2.13;1.52;;;16.00;82.10;;;;;;5009001;28;99058;-74
2023/05/03 09:52:06;;;;;;;2.22;1.50;;;15.80;80.20;;;;;;5009085;28;95607;-74
2023/05/03 09:54:34;;;;;;;3.08;1.52;;;15.40;80.80;;;;;;4977255;28;92456;-74
2023/05/03 09:57:05;;;;;;;1.95;1.67;;;15.30;81.30;;;;;;4977676;28;91712;-74
2023/05/03 09:59:33;;;;;;;4.13;1.50;;;15.20;82.00;;;;;;4977111;28;93138;-74
2023/05/03 10:02:03;;;;;;;1.85;1.60;;;15.20;82.20;;;;;;4959479;28;99153;-74
2023/05/03 10:04:46;;;;;;;3.90;1.90;;;15.50;82.50;;;;;;5006253;28;94930;-75
2023/05/03 10:07:17;;;;;;;2.70;1.30;;;15.50;81.60;;;;;;4977355;28;92823;-74
2023/05/03 10:09:46;;;;;;;3.10;1.50;;;15.30;81.30;;;;;;4977195;28;93103;-77
2023/05/03 10:12:17;;;;;;;3.35;1.83;;;15.10;82.20;;;;;;5008867;28;95561;-76
2023/05/03 10:14:46;;;;;;;2.58;1.75;;;14.80;82.40;;;;;;5008882;28;93295;-76
2023/05/03 10:17:32;;;;;;;2.17;1.75;;;14.60;82.80;;;;;;5008884;28;92526;-76
2023/05/03 10:20:42;;;;;;;1.45;1.35;;;14.70;83.00;;;;;;5008624;28;96193;-76
2023/05/03 10:23:13;;;;;;;4.80;1.90;;;14.70;82.20;;;;;;5008914;28;93042;-76
2023/05/03 10:26:12;;;;;;;2.08;1.40;;;14.60;83.50;;;;;;5009033;28;92461;-76
2023/05/03 10:28:39;;;;;;;3.08;1.50;;;14.60;82.90;;;;;;5008666;28;93396;-76
2023/05/03 10:31:52;;;;;;;2.25;1.67;;;14.40;83.50;;;;;;5007429;28;95387;-76
2023/05/03 10:34:23;;;;;;;1.90;1.80;;;14.50;83.10;;;;;;4974707;28;96301;-76
2023/05/03 10:36:52;;;;;;;4.07;1.90;;;14.60;83.50;;;;;;4976885;28;92382;-76
2023/05/03 10:39:20;;;;;;;3.42;2.20;;;14.70;83.70;;;;;;4975241;28;92421;-76
2023/05/03 10:42:04;;;;;;;2.15;1.73;;;14.70;83.60;;;;;;4975909;28;103448;-76
2023/05/03 10:44:37;;;;;;;4.45;2.33;;;15.00;82.70;;;;;;5008499;28;93047;-76
2023/05/03 10:47:15;;;;;;;2.85;1.90;;;15.00;82.40;;;;;;5008599;28;93106;-76
2023/05/03 10:49:42;;;;;;;3.58;1.60;;;15.10;81.90;;;;;;5008904;28;91782;-76
2023/05/03 10:52:34;;;;;;;1.67;1.48;;;15.30;82.90;;;;;;4975165;28;93394;-76
2023/05/03 10:55:01;;;;;;;2.95;1.58;;;15.50;80.30;;;;;;4976479;28;92962;-77
2023/05/03 10:57:31;;;;;;;1.95;1.85;;;15.50;82.20;;;;;;4975284;28;95372;-75
2023/05/03 10:59:58;;;;;;;2.45;1.98;;;15.70;81.90;;;;;;4976382;28;92496;-75
2023/05/03 11:02:31;;;;;;;1.75;1.65;;;15.80;81.70;;;;;;4976302;28;93353;-75
2023/05/03 11:05:04;;;;;;;3.75;2.20;;;16.10;81.30;;;;;;5007665;28;96260;-76
2023/05/03 11:07:31;;;;;;;2.42;1.70;;;16.40;79.70;;;;;;4959449;28;92502;-75
2023/05/03 11:09:58;;;;;;;2.33;1.92;;;16.50;79.50;;;;;;5008254;28;92576;-75
2023/05/03 11:12:25;;;;;;;4.22;1.95;;;16.60;78.70;;;;;;4975714;28;93174;-76
2023/05/03 11:14:51;;;;;;;3.10;2.00;;;16.80;78.60;;;;;;4974063;28;94386;-76
2023/05/03 11:17:19;;;;;;;4.68;1.88;;;16.80;78.00;;;;;;5007774;28;92462;-76
2023/05/03 11:19:46;;;;;;;4.25;2.13;;;16.40;78.20;;;;;;4976237;28;92846;-76
2023/05/03 11:22:13;;;;;;;4.13;2.03;;;16.10;80.30;;;;;;5006456;28;95531;-76
2023/05/03 11:24:40;;;;;;;2.22;1.60;;;15.80;80.20;;;;;;4974295;28;98051;-75
2023/05/03 11:27:12;;;;;;;3.17;2.20;;;15.40;79.90;;;;;;5007976;28;93320;-76
2023/05/03 11:29:39;;;;;;;2.63;1.92;;;15.30;80.50;;;;;;4975983;28;92565;-75
2023/05/03 11:32:07;;;;;;;5.43;1.92;;;15.30;81.10;;;;;;4991042;28;95805;-76
2023/05/03 11:34:35;;;;;;;3.38;1.90;;;15.40;81.10;;;;;;4975642;28;92636;-76
2023/05/03 11:37:03;;;;;;;4.70;1.98;;;15.40;80.00;;;;;;4975558;28;92665;-75
2023/05/03 11:39:31;;;;;;;3.58;1.85;;;15.40;80.60;;;;;;4991009;28;91690;-76
2023/05/03 11:42:05;;;;;;;4.85;1.98;;;15.60;81.80;;;;;;5007574;28;94761;-76
2023/05/03 11:44:32;;;;;;;2.47;1.85;;;15.60;80.90;;;;;;4975677;28;93071;-76
2023/05/03 11:47:00;;;;;;;2.95;1.80;;;15.60;80.10;;;;;;4974617;28;94833;-76
2023/05/03 11:49:27;;;;;;;3.17;1.75;;;15.50;78.80;;;;;;4975462;28;92361;-76
2023/05/03 11:51:55;;;;;;;4.00;1.95;;;15.60;79.10;;;;;;5007052;28;94028;-75
2023/05/03 11:54:23;;;;;;;2.42;2.22;;;15.70;79.50;;;;;;4975685;28;93010;-76
2023/05/03 11:56:57;;;;;;;3.05;1.90;;;15.60;79.80;;;;;;4975479;28;92400;-76
2023/05/03 11:59:38;;;;;;;3.20;2.00;;;15.70;79.50;;;;;;4974106;28;92525;-75
2023/05/03 12:02:08;;;;;;;3.50;2.10;;;15.70;79.40;;;;;;5007121;28;94431;-76
2023/05/03 12:04:42;;;;;;;3.08;1.65;;;15.80;80.40;;;;;;4974189;28;95487;-75
2023/05/03 12:07:12;;;;;;;1.77;1.55;;;15.80;80.30;;;;;;4990462;28;92561;-75
2023/05/03 12:09:41;;;;;;;3.65;1.88;;;15.60;80.30;;;;;;4975709;28;92750;-76
2023/05/03 12:12:18;;;;;;;2.38;2.05;;;15.40;80.60;;;;;;5006034;28;96576;-76
2023/05/03 12:15:00;;;;;;;4.18;2.05;;;15.30;81.60;;;;;;4973279;28;96683;-76
2023/05/03 12:17:37;;;;;;;3.88;1.98;;;15.20;81.40;;;;;;4975501;28;92443;-75
2023/05/03 12:20:18;;;;;;;2.80;1.88;;;15.30;80.90;;;;;;5006387;28;92426;-76
2023/05/03 12:22:52;;;;;;;1.92;1.55;;;15.40;81.60;;;;;;4957749;28;95680;-75
2023/05/03 12:25:25;;;;;;;2.42;1.90;;;15.50;81.00;;;;;;4975495;28;93128;-75
2023/05/03 12:27:56;;;;;;;3.88;2.03;;;15.50;81.20;;;;;;5009723;28;92422;-75
2023/05/03 12:30:44;;;;;;;2.28;1.83;;;15.40;81.80;;;;;;4977733;28;91997;-76
2023/05/03 12:33:14;;;;;;;2.63;1.92;;;15.30;81.10;;;;;;4977341;28;93245;-76
2023/05/03 12:35:42;;;;;;;5.05;2.30;;;15.20;81.60;;;;;;4980423;28;93053;-76
2023/05/03 12:38:12;;;;;;;2.85;2.00;;;15.00;81.40;;;;;;4986317;28;94733;-76
2023/05/03 12:40:43;;;;;;;3.00;1.98;;;15.10;81.30;;;;;;4977781;28;103445;-75
2023/05/03 12:43:11;;;;;;;2.10;1.95;;;15.20;80.70;;;;;;5009972;28;93673;-76
2023/05/03 12:45:38;;;;;;;3.47;2.10;;;15.20;80.90;;;;;;4978235;28;92954;-75
2023/05/03 12:48:07;;;;;;;3.00;2.15;;;15.20;81.10;;;;;;5009807;28;92562;-75
2023/05/03 12:50:34;;;;;;;2.85;2.00;;;15.30;81.90;;;;;;4978114;28;92463;-75
2023/05/03 12:53:04;;;;;;;3.08;2.10;;;15.30;80.70;;;;;;4978361;28;93605;-76
2023/05/03 12:55:44;;;;;;;3.45;2.35;;;15.40;81.00;;;;;;4978845;28;93090;-76
2023/05/03 12:58:17;;;;;;;3.47;2.50;;;15.30;81.90;;;;;;4977520;28;92530;-76
2023/05/03 13:00:47;;;;;;;4.03;2.10;;;15.20;82.60;;;;;;5009241;28;92831;-75
2023/05/03 13:03:37;;;;;;;5.45;2.30;;;15.00;82.60;;;;;;4975590;28;95718;-75
2023/05/03 13:06:09;;;;;;;2.67;2.03;;;14.90;83.40;;;;;;4992288;28;100692;-76